createdAt,value
2023-05-24T00:00:13.160Z,53.01
2023-05-24T00:02:41.954Z,54.34
2023-05-24T00:05:10.750Z,53.56
2023-05-24T00:07:38.668Z,53.07
2023-05-24T00:10:06.696Z,49.73
2023-05-24T00:12:34.378Z,50.34
2023-05-24T00:15:03.490Z,48.74
2023-05-24T00:17:31.192Z,53.54
2023-05-24T00:19:59.711Z,54.70
2023-05-24T00:22:27.407Z,54.26
2023-05-24T00:24:55.090Z,57.84
2023-05-24T00:27:22.731Z,55.44
2023-05-24T00:29:50.377Z,65.61
2023-05-24T00:32:19.561Z,56.17
2023-05-24T00:34:47.196Z,55.13
2023-05-24T00:37:15.018Z,58.38
2023-05-24T00:39:43.428Z,54.97
2023-05-24T00:42:11.307Z,56.15
2023-05-24T00:44:39.249Z,56.76
2023-05-24T00:47:07.022Z,52.29
2023-05-24T00:49:37.098Z,51.02
2023-05-24T00:52:05.157Z,52.97
2023-05-24T00:54:33.305Z,53.37
2023-05-24T00:57:00.981Z,52.97
2023-05-24T00:59:28.693Z,51.88
2023-05-24T01:01:56.488Z,55.77
2023-05-24T01:04:24.236Z,50.27
2023-05-24T01:06:57.746Z,52.33
2023-05-24T01:09:27.175Z,50.64
2023-05-24T01:12:01.246Z,50.13
2023-05-24T01:14:31.027Z,52.91
2023-05-24T01:17:01.154Z,50.92
2023-05-24T01:19:44.803Z,51.98
2023-05-24T01:22:18.517Z,51.02
2023-05-24T01:24:51.429Z,51.84
2023-05-24T01:27:20.485Z,55.40
2023-05-24T01:29:53.235Z,52.32
2023-05-24T01:32:21.375Z,53.17
2023-05-24T01:34:49.097Z,54.43
2023-05-24T01:37:17.321Z,50.54
2023-05-24T01:39:45.017Z,50.25
2023-05-24T01:42:12.993Z,49.33
2023-05-24T01:44:44.137Z,49.25
2023-05-24T01:47:17.719Z,48.69
2023-05-24T01:49:46.271Z,47.92
2023-05-24T01:52:14.310Z,51.53
2023-05-24T01:54:43.574Z,51.56
2023-05-24T01:57:11.399Z,48.15
2023-05-24T01:59:39.133Z,47.60
2023-05-24T02:02:08.264Z,48.58
2023-05-24T02:04:35.886Z,48.71
2023-05-24T02:07:03.610Z,47.96
2023-05-24T02:09:31.637Z,46.67
2023-05-24T02:11:59.307Z,48.86
2023-05-24T02:14:26.945Z,47.47
2023-05-24T02:16:58.755Z,50.47
2023-05-24T02:19:28.014Z,51.39
2023-05-24T02:21:55.676Z,49.70
2023-05-24T02:24:23.355Z,50.06
2023-05-24T02:26:51.231Z,49.23
2023-05-24T02:29:18.905Z,47.33
2023-05-24T02:31:46.635Z,49.47
2023-05-24T02:34:14.357Z,51.27
2023-05-24T02:36:43.596Z,52.05
2023-05-24T02:39:11.297Z,53.67
2023-05-24T02:41:39.009Z,51.72
2023-05-24T02:44:06.693Z,50.27
2023-05-24T02:46:34.468Z,48.97
2023-05-24T02:49:02.301Z,52.07
2023-05-24T02:51:30.262Z,51.48
2023-05-24T02:53:59.280Z,54.04
2023-05-24T02:56:27.566Z,57.29
2023-05-24T02:58:55.664Z,52.49
2023-05-24T03:01:23.725Z,50.79
2023-05-24T03:03:54.368Z,48.36
2023-05-24T03:06:22.072Z,51.19
2023-05-24T03:08:50.005Z,48.51
2023-05-24T03:11:22.034Z,53.67
2023-05-24T03:13:50.603Z,53.51
2023-05-24T03:16:19.706Z,47.72
2023-05-24T03:18:50.600Z,49.25
2023-05-24T03:21:20.543Z,50.12
2023-05-24T03:23:48.452Z,51.94
2023-05-24T03:26:16.436Z,51.02
2023-05-24T03:28:45.885Z,48.80
2023-05-24T03:31:13.768Z,52.35
2023-05-24T03:33:41.448Z,52.04
2023-05-24T03:36:09.474Z,55.49
2023-05-24T03:38:37.202Z,54.76
2023-05-24T03:41:04.975Z,49.69
2023-05-24T03:43:33.857Z,51.83
2023-05-24T03:46:05.408Z,47.09
2023-05-24T03:48:33.098Z,51.88
2023-05-24T03:51:00.786Z,54.67
2023-05-24T03:53:28.477Z,50.47
2023-05-24T03:55:56.286Z,53.50
2023-05-24T03:58:23.919Z,55.07
2023-05-24T04:00:51.937Z,50.56
2023-05-24T04:03:21.300Z,49.58
2023-05-24T04:05:49.109Z,52.86
2023-05-24T04:08:16.808Z,48.01
2023-05-24T04:10:44.764Z,50.57
2023-05-24T04:13:13.382Z,51.67
2023-05-24T04:15:41.896Z,49.36
2023-05-24T04:18:12.083Z,49.97
2023-05-24T04:20:41.766Z,50.49
2023-05-24T04:23:10.643Z,50.27
2023-05-24T04:25:38.383Z,49.25
2023-05-24T04:28:07.005Z,50.18
2023-05-24T04:30:36.663Z,55.51
2023-05-24T04:33:04.653Z,51.87
2023-05-24T04:35:32.485Z,49.93
2023-05-24T04:38:01.669Z,56.99
2023-05-24T04:40:29.346Z,52.67
2023-05-24T04:42:57.018Z,49.11
2023-05-24T04:45:25.011Z,50.46
2023-05-24T04:47:52.867Z,50.27
2023-05-24T04:50:20.591Z,53.37
2023-05-24T04:52:48.313Z,52.90
2023-05-24T04:55:17.627Z,52.51
2023-05-24T04:57:45.683Z,51.50
2023-05-24T05:00:14.349Z,48.24
2023-05-24T05:02:42.348Z,46.10
2023-05-24T05:05:10.469Z,50.28
2023-05-24T05:07:38.436Z,47.82
2023-05-24T05:10:06.742Z,50.24
2023-05-24T05:12:35.968Z,44.18
2023-05-24T05:15:03.677Z,45.01
2023-05-24T05:17:31.429Z,47.02
2023-05-24T05:19:59.116Z,44.90
2023-05-24T05:22:26.802Z,45.99
2023-05-24T05:24:54.407Z,45.30
2023-05-24T05:27:22.066Z,46.45
2023-05-24T05:29:51.097Z,44.86
2023-05-24T05:32:18.827Z,44.11
2023-05-24T05:34:46.565Z,42.49
2023-05-24T05:37:14.295Z,45.84
2023-05-24T05:39:41.969Z,44.57
2023-05-24T05:42:09.680Z,43.34
2023-05-24T05:44:37.346Z,42.75
2023-05-24T05:47:07.410Z,43.79
2023-05-24T05:49:36.360Z,42.62
2023-05-24T05:52:04.019Z,42.17
2023-05-24T05:54:31.697Z,39.32
2023-05-24T05:57:01.358Z,38.29
2023-05-24T05:59:29.400Z,41.22
2023-05-24T06:01:57.061Z,43.44
2023-05-24T06:04:26.073Z,44.42
2023-05-24T06:06:53.796Z,43.50
2023-05-24T06:09:21.453Z,43.92
2023-05-24T06:11:49.132Z,40.81
2023-05-24T06:14:18.214Z,43.19
2023-05-24T06:16:46.057Z,42.93
2023-05-24T06:19:13.800Z,41.61
2023-05-24T06:21:47.585Z,41.68
2023-05-24T06:24:15.313Z,43.31
2023-05-24T06:26:44.128Z,43.29
2023-05-24T06:29:11.790Z,44.00
2023-05-24T06:31:39.945Z,41.61
2023-05-24T06:34:07.912Z,43.14
2023-05-24T06:36:41.267Z,41.71
2023-05-24T06:39:10.916Z,42.24
2023-05-24T06:41:38.999Z,38.64
2023-05-24T06:44:06.821Z,39.91
2023-05-24T06:46:34.958Z,40.03
2023-05-24T06:49:03.182Z,39.27
2023-05-24T06:51:33.792Z,40.41
2023-05-24T06:54:01.565Z,43.18
2023-05-24T06:56:30.593Z,42.08
2023-05-24T06:58:58.259Z,44.33
2023-05-24T07:01:26.017Z,43.93
2023-05-24T07:03:53.729Z,42.95
2023-05-24T07:06:21.466Z,42.42
2023-05-24T07:08:49.142Z,43.46
2023-05-24T07:11:16.987Z,39.74
2023-05-24T07:13:46.342Z,39.80
2023-05-24T07:16:14.009Z,39.31
2023-05-24T07:18:42.206Z,44.11
2023-05-24T07:21:10.040Z,43.98
2023-05-24T07:23:38.275Z,40.58
2023-05-24T07:26:06.200Z,41.10
2023-05-24T07:28:34.458Z,39.59
2023-05-24T07:31:03.491Z,37.91
2023-05-24T07:33:31.283Z,37.47
2023-05-24T07:35:59.083Z,37.63
2023-05-24T07:38:26.815Z,38.28
2023-05-24T07:40:54.438Z,41.05
2023-05-24T07:43:22.150Z,41.96
2023-05-24T07:45:49.943Z,39.91
2023-05-24T07:48:19.132Z,40.07
2023-05-24T07:50:48.657Z,40.63
2023-05-24T07:53:16.463Z,39.25
2023-05-24T07:55:44.802Z,40.37
2023-05-24T07:58:12.586Z,41.10
2023-05-24T08:00:41.434Z,41.12
2023-05-24T08:03:09.137Z,41.47
2023-05-24T08:05:38.288Z,40.25
2023-05-24T08:08:05.972Z,39.21
2023-05-24T08:10:33.629Z,41.04
2023-05-24T08:13:01.349Z,39.96
2023-05-24T08:15:29.061Z,41.67
2023-05-24T08:17:56.849Z,41.15
2023-05-24T08:20:24.574Z,40.09
2023-05-24T08:22:53.610Z,38.68
2023-05-24T08:25:21.362Z,38.64
2023-05-24T08:27:49.059Z,37.48
2023-05-24T08:30:16.813Z,39.49
2023-05-24T08:32:44.600Z,38.86
2023-05-24T08:37:46.086Z,38.38
2023-05-24T08:40:15.227Z,38.55
2023-05-24T08:42:42.984Z,42.33
2023-05-24T08:45:12.108Z,40.53
2023-05-24T08:47:39.956Z,40.43
2023-05-24T08:50:08.278Z,40.80
2023-05-24T08:52:36.038Z,41.59
2023-05-24T08:55:04.736Z,39.50
2023-05-24T08:57:34.757Z,38.29
2023-05-24T09:00:02.748Z,38.05
2023-05-24T09:02:30.446Z,35.32
2023-05-24T09:04:58.093Z,37.06
2023-05-24T09:07:25.891Z,36.88
2023-05-24T09:09:54.874Z,36.58
2023-05-24T09:12:35.515Z,33.50
2023-05-24T09:15:05.696Z,34.86
2023-05-24T09:17:33.932Z,36.25
2023-05-24T09:20:02.115Z,36.04
2023-05-24T09:22:30.791Z,35.19
2023-05-24T09:24:59.747Z,36.30
2023-05-24T09:27:27.781Z,36.13
2023-05-24T09:29:55.886Z,34.86
2023-05-24T09:32:25.166Z,33.35
2023-05-24T09:34:53.363Z,32.08
2023-05-24T09:37:25.553Z,33.46
2023-05-24T09:39:55.515Z,33.98
2023-05-24T09:42:24.510Z,33.26
2023-05-24T09:44:52.500Z,33.75
2023-05-24T09:47:20.410Z,32.98
2023-05-24T09:49:49.503Z,33.15
2023-05-24T09:52:17.176Z,34.14
2023-05-24T09:54:45.891Z,33.84
2023-05-24T09:57:13.547Z,34.25
2023-05-24T09:59:41.829Z,36.00
2023-05-24T10:02:11.588Z,33.58
2023-05-24T10:04:39.289Z,35.32
2023-05-24T10:07:08.692Z,34.83
2023-05-24T10:09:36.894Z,34.19
2023-05-24T10:12:05.454Z,34.45
2023-05-24T10:14:34.039Z,33.43
2023-05-24T10:17:01.814Z,32.19
2023-05-24T10:19:29.575Z,33.15
2023-05-24T10:21:57.687Z,34.72
2023-05-24T10:24:27.497Z,35.57
2023-05-24T10:26:55.249Z,33.56
2023-05-24T10:29:26.615Z,34.51
2023-05-24T10:31:54.418Z,32.19
2023-05-24T10:34:22.122Z,32.29
2023-05-24T10:36:50.405Z,33.07
2023-05-24T10:39:18.547Z,31.68
2023-05-24T10:41:47.611Z,30.77
2023-05-24T10:44:19.306Z,30.06
2023-05-24T10:47:05.608Z,29.28
2023-05-24T10:49:33.265Z,31.75
2023-05-24T10:52:03.927Z,32.14
2023-05-24T10:54:31.608Z,31.12
2023-05-24T10:57:03.394Z,33.39
2023-05-24T10:59:41.208Z,32.95
2023-05-24T11:02:13.779Z,32.60
2023-05-24T11:04:43.288Z,34.80
2023-05-24T11:07:11.568Z,32.40
2023-05-24T11:09:45.882Z,32.00
2023-05-24T11:12:17.378Z,31.87
2023-05-24T11:14:48.529Z,31.40
2023-05-24T11:17:16.388Z,31.28
2023-05-24T11:19:47.466Z,31.24
2023-05-24T11:22:15.883Z,29.47
2023-05-24T11:24:43.863Z,27.90
2023-05-24T11:27:12.778Z,27.13
2023-05-24T11:29:45.181Z,27.27
2023-05-24T11:32:16.837Z,26.76
2023-05-24T11:34:46.157Z,26.42
2023-05-24T11:37:16.114Z,26.06
2023-05-24T11:39:45.135Z,23.48
2023-05-24T11:42:12.840Z,23.94
2023-05-24T11:44:40.498Z,25.51
2023-05-24T11:47:09.624Z,25.13
2023-05-24T11:49:37.375Z,25.26
2023-05-24T11:52:05.026Z,25.53
2023-05-24T11:54:34.809Z,26.39
2023-05-24T11:57:03.427Z,27.29
2023-05-24T11:59:31.745Z,27.19
2023-05-24T12:02:00.790Z,26.30
2023-05-24T12:04:30.113Z,28.57
2023-05-24T12:06:57.910Z,29.64
2023-05-24T12:09:25.800Z,27.93
2023-05-24T12:11:53.731Z,28.75
2023-05-24T12:14:21.740Z,27.94
2023-05-24T12:16:49.995Z,28.33
2023-05-24T12:19:31.736Z,27.79
2023-05-24T12:22:02.881Z,25.52
2023-05-24T12:24:30.571Z,25.32
2023-05-24T12:27:02.608Z,25.07
2023-05-24T12:29:33.446Z,26.14
2023-05-24T12:32:01.190Z,23.71
2023-05-24T12:34:31.940Z,20.71
2023-05-24T12:37:00.402Z,19.24
2023-05-24T12:39:31.625Z,19.30
2023-05-24T12:42:01.569Z,21.52
2023-05-24T12:44:30.651Z,25.25
2023-05-24T12:46:58.488Z,26.43
2023-05-24T12:49:26.886Z,27.19
2023-05-24T12:51:55.069Z,26.83
2023-05-24T12:54:23.510Z,28.34
2023-05-24T12:56:55.619Z,29.20
2023-05-24T12:59:24.274Z,28.04
2023-05-24T13:01:52.536Z,28.83
2023-05-24T13:04:20.954Z,28.98
2023-05-24T13:06:49.176Z,31.17
2023-05-24T13:09:18.547Z,30.36
2023-05-24T13:11:46.732Z,30.89
2023-05-24T13:14:16.799Z,31.92
2023-05-24T13:16:45.057Z,30.61
2023-05-24T13:19:12.814Z,28.05
2023-05-24T13:21:40.538Z,28.42
2023-05-24T13:24:08.712Z,27.30
2023-05-24T13:26:37.727Z,29.34
2023-05-24T13:31:38.628Z,23.69
2023-05-24T13:34:06.545Z,21.92
2023-05-24T13:36:34.208Z,20.54
2023-05-24T13:39:14.970Z,19.81
2023-05-24T13:41:43.905Z,18.95
2023-05-24T13:44:12.029Z,20.58
2023-05-24T13:46:41.253Z,24.29
2023-05-24T13:49:09.738Z,25.64
2023-05-24T13:51:37.677Z,27.10
2023-05-24T13:54:07.089Z,23.50
2023-05-24T13:56:35.003Z,20.25
2023-05-24T13:59:03.482Z,19.76
2023-05-24T14:01:31.911Z,22.89
2023-05-24T14:04:01.618Z,22.20
2023-05-24T14:06:29.314Z,20.97
2023-05-24T14:08:57.036Z,18.60
2023-05-24T14:11:25.030Z,18.81
2023-05-24T14:16:23.520Z,20.36
2023-05-24T14:18:51.676Z,21.01
2023-05-24T14:21:21.671Z,19.26
2023-05-24T14:23:49.381Z,18.47
2023-05-24T14:26:17.546Z,19.81
2023-05-24T14:28:45.307Z,18.67
2023-05-24T14:31:13.128Z,16.71
2023-05-24T14:33:40.817Z,16.41
2023-05-24T14:36:09.100Z,16.62
2023-05-24T14:38:38.143Z,16.27
2023-05-24T14:41:06.442Z,16.37
2023-05-24T14:43:34.116Z,14.74
2023-05-24T14:46:01.759Z,14.54
2023-05-24T14:48:29.609Z,15.20
2023-05-24T14:50:57.209Z,15.13
2023-05-24T14:53:24.893Z,15.96
2023-05-24T14:55:54.363Z,16.34
2023-05-24T14:58:22.117Z,16.39
2023-05-24T15:00:50.011Z,17.71
2023-05-24T15:03:18.553Z,16.11
2023-05-24T15:05:46.320Z,16.78
2023-05-24T15:08:14.058Z,15.93
2023-05-24T15:10:44.491Z,14.38
2023-05-24T15:13:14.067Z,15.04
2023-05-24T15:15:42.088Z,15.62
2023-05-24T15:18:10.012Z,15.94
2023-05-24T15:20:37.805Z,16.16
2023-05-24T15:23:05.780Z,16.92
2023-05-24T15:25:33.473Z,15.30
2023-05-24T15:28:01.300Z,15.77
2023-05-24T15:30:30.356Z,16.51
2023-05-24T15:32:58.078Z,16.42
2023-05-24T15:35:25.985Z,15.86
2023-05-24T15:37:53.701Z,16.41
2023-05-24T15:40:24.305Z,15.27
2023-05-24T15:42:52.757Z,14.90
2023-05-24T15:45:20.829Z,16.33
2023-05-24T15:47:50.127Z,17.17
2023-05-24T15:50:23.619Z,17.78
2023-05-24T15:52:56.423Z,20.34
2023-05-24T15:55:24.059Z,21.66
2023-05-24T15:57:51.722Z,24.71
2023-05-24T16:00:19.504Z,25.37
2023-05-24T16:02:47.239Z,26.16
2023-05-24T16:05:16.317Z,25.24
2023-05-24T16:07:44.015Z,24.31
2023-05-24T16:10:11.783Z,23.69
2023-05-24T16:12:39.471Z,23.44
2023-05-24T16:15:07.720Z,24.52
2023-05-24T16:17:35.438Z,25.54
2023-05-24T16:20:03.568Z,24.24
2023-05-24T16:22:34.178Z,23.58
2023-05-24T16:25:01.788Z,25.12
2023-05-24T16:27:29.486Z,23.50
2023-05-24T16:29:57.186Z,25.07
2023-05-24T16:32:24.947Z,23.04
2023-05-24T16:34:57.023Z,22.27
2023-05-24T16:37:25.227Z,21.90
2023-05-24T16:39:54.251Z,23.51
2023-05-24T16:42:21.895Z,22.58
2023-05-24T16:44:49.526Z,20.73
2023-05-24T16:47:17.238Z,19.10
2023-05-24T16:49:44.955Z,18.37
2023-05-24T16:52:12.633Z,18.03
2023-05-24T16:54:40.465Z,18.49
2023-05-24T16:57:09.544Z,17.82
2023-05-24T16:59:38.780Z,17.19
2023-05-24T17:02:06.708Z,17.23
2023-05-24T17:04:34.409Z,17.46
2023-05-24T17:07:02.015Z,17.08
2023-05-24T17:09:31.345Z,17.10
2023-05-24T17:11:58.918Z,16.51
2023-05-24T17:14:28.052Z,17.73
2023-05-24T17:16:55.743Z,18.54
2023-05-24T17:19:25.440Z,20.05
2023-05-24T17:21:53.089Z,21.00
2023-05-24T17:24:22.358Z,22.04
2023-05-24T17:26:49.971Z,21.91
2023-05-24T17:29:17.600Z,21.30
2023-05-24T17:31:47.011Z,20.88
2023-05-24T17:34:16.222Z,19.35
2023-05-24T17:36:43.884Z,19.08
2023-05-24T17:39:11.531Z,20.18
2023-05-24T17:41:41.716Z,19.97
2023-05-24T17:44:09.609Z,20.73
2023-05-24T17:46:39.747Z,20.39
2023-05-24T17:49:12.581Z,20.06
2023-05-24T17:51:40.235Z,21.50
2023-05-24T17:54:07.883Z,21.10
2023-05-24T17:56:35.518Z,21.43
2023-05-24T17:59:03.216Z,21.97
2023-05-24T18:01:30.937Z,21.34
2023-05-24T18:03:59.108Z,21.03
2023-05-24T18:06:28.129Z,24.65
2023-05-24T18:08:57.892Z,24.17
2023-05-24T18:11:26.684Z,23.15
2023-05-24T18:13:54.312Z,24.67
2023-05-24T18:16:21.996Z,26.25
2023-05-24T18:18:49.770Z,26.62
2023-05-24T18:21:17.415Z,28.77
2023-05-24T18:23:46.487Z,28.50
2023-05-24T18:26:14.158Z,28.11
2023-05-24T18:28:42.188Z,30.19
2023-05-24T18:31:10.669Z,32.14
2023-05-24T18:33:38.721Z,30.36
2023-05-24T18:36:06.655Z,30.04
2023-05-24T18:38:34.494Z,31.43
2023-05-24T18:41:06.249Z,30.25
2023-05-24T18:43:34.100Z,31.06
2023-05-24T18:46:03.757Z,30.93
2023-05-24T18:48:31.583Z,31.62
2023-05-24T18:50:59.330Z,33.34
2023-05-24T18:53:27.008Z,31.90
2023-05-24T18:55:54.672Z,32.85
2023-05-24T18:58:23.710Z,32.57
2023-05-24T19:00:51.522Z,32.63
2023-05-24T19:03:19.904Z,31.68
2023-05-24T19:05:48.852Z,32.46
2023-05-24T19:08:16.756Z,33.33
2023-05-24T19:10:44.774Z,33.36
2023-05-24T19:13:12.415Z,32.43
2023-05-24T19:15:41.773Z,32.61
2023-05-24T19:18:09.531Z,32.47
2023-05-24T19:20:37.244Z,32.89
2023-05-24T19:23:07.905Z,32.73
2023-05-24T19:25:42.317Z,33.66
2023-05-24T19:28:11.244Z,33.33
2023-05-24T19:30:38.920Z,32.91
2023-05-24T19:33:08.045Z,33.35
2023-05-24T19:35:36.582Z,32.75
2023-05-24T19:38:04.332Z,32.84
2023-05-24T19:40:31.978Z,33.24
2023-05-24T19:42:59.625Z,33.69
2023-05-24T19:45:27.269Z,33.37
2023-05-24T19:47:54.983Z,34.12
2023-05-24T19:50:24.143Z,33.99
2023-05-24T19:52:53.708Z,34.09
2023-05-24T19:55:21.355Z,33.67
2023-05-24T19:57:49.032Z,33.79
2023-05-24T20:00:17.145Z,33.72
2023-05-24T20:02:47.605Z,34.03
2023-05-24T20:05:17.204Z,34.40
2023-05-24T20:07:46.351Z,34.63
2023-05-24T20:10:13.987Z,34.68
2023-05-24T20:12:42.615Z,34.73
2023-05-24T20:15:11.276Z,34.48
2023-05-24T20:17:38.972Z,34.68
2023-05-24T20:20:07.230Z,34.71
2023-05-24T20:22:34.952Z,34.96
2023-05-24T20:25:04.042Z,35.04
2023-05-24T20:27:31.678Z,36.26
2023-05-24T20:29:59.344Z,36.18
2023-05-24T20:32:27.067Z,37.50
2023-05-24T20:34:54.778Z,36.92
2023-05-24T20:37:22.400Z,37.11
2023-05-24T20:39:50.305Z,37.22
2023-05-24T20:42:19.317Z,37.86
2023-05-24T20:44:46.989Z,38.74
2023-05-24T20:47:16.564Z,38.19
2023-05-24T20:49:44.215Z,37.22
2023-05-24T20:52:11.862Z,36.69
2023-05-24T20:54:39.485Z,36.86
2023-05-24T20:57:07.250Z,37.31
2023-05-24T20:59:36.501Z,37.42
2023-05-24T21:02:04.185Z,37.24
2023-05-24T21:04:31.894Z,37.81
2023-05-24T21:06:59.513Z,37.98
2023-05-24T21:09:27.155Z,38.01
2023-05-24T21:11:54.833Z,37.82
2023-05-24T21:14:22.531Z,38.97
2023-05-24T21:16:51.575Z,41.01
2023-05-24T21:19:19.292Z,41.96
2023-05-24T21:21:47.050Z,41.38
2023-05-24T21:24:15.832Z,40.97
2023-05-24T21:26:43.445Z,41.43
2023-05-24T21:29:11.798Z,41.74
2023-05-24T21:31:39.515Z,41.48
2023-05-24T21:34:08.666Z,40.86
2023-05-24T21:36:37.482Z,40.63
2023-05-24T21:39:08.106Z,40.80
2023-05-24T21:41:35.814Z,40.87
2023-05-24T21:44:03.825Z,41.00
2023-05-24T21:46:33.561Z,41.47
2023-05-24T21:49:01.344Z,41.53
2023-05-24T21:51:30.334Z,41.50
2023-05-24T21:53:57.998Z,42.19
2023-05-24T21:56:26.985Z,42.99
2023-05-24T21:58:54.657Z,43.12
2023-05-24T22:01:22.501Z,45.18
2023-05-24T22:03:50.290Z,44.82
2023-05-24T22:06:18.045Z,43.24
2023-05-24T22:08:47.037Z,43.15
2023-05-24T22:11:14.671Z,44.52
2023-05-24T22:13:42.292Z,46.28
2023-05-24T22:16:10.047Z,47.73
2023-05-24T22:18:37.699Z,44.94
2023-05-24T22:21:05.524Z,46.30
2023-05-24T22:23:33.349Z,48.47
2023-05-24T22:26:02.391Z,46.88
2023-05-24T22:28:30.022Z,45.97
2023-05-24T22:30:58.988Z,46.95
2023-05-24T22:33:26.648Z,47.24
2023-05-24T22:35:54.314Z,47.21
2023-05-24T22:38:21.952Z,46.71
2023-05-24T22:40:49.620Z,45.53
2023-05-24T22:43:18.641Z,46.31
2023-05-24T22:45:46.510Z,46.51
2023-05-24T22:48:14.382Z,45.89
2023-05-24T22:50:42.263Z,45.60
2023-05-24T22:53:10.171Z,46.07
2023-05-24T22:55:37.871Z,46.68
2023-05-24T22:58:05.567Z,46.97
2023-05-24T23:00:34.636Z,47.59
2023-05-24T23:03:02.430Z,47.21
2023-05-24T23:05:30.446Z,47.90
2023-05-24T23:07:58.278Z,48.15
2023-05-24T23:10:25.930Z,47.85
2023-05-24T23:12:53.583Z,47.49
2023-05-24T23:15:21.284Z,50.23
2023-05-24T23:17:52.778Z,48.23
2023-05-24T23:20:20.605Z,48.96
2023-05-24T23:22:48.375Z,49.66
2023-05-24T23:25:16.076Z,50.55
2023-05-24T23:27:43.738Z,48.34
2023-05-24T23:30:11.640Z,48.53
2023-05-24T23:32:39.369Z,49.75
2023-05-24T23:35:09.001Z,48.46
2023-05-24T23:37:36.685Z,48.34
2023-05-24T23:40:06.591Z,48.71
2023-05-24T23:42:34.279Z,49.26
2023-05-24T23:45:02.254Z,48.47
2023-05-24T23:47:29.946Z,48.07
2023-05-24T23:49:57.667Z,49.43
2023-05-24T23:52:27.012Z,50.05
2023-05-24T23:54:54.659Z,50.35
2023-05-24T23:57:24.924Z,50.66
2023-05-24T23:59:52.641Z,48.79
